Time;durP1;ratioP1;P1;durP2;ratioP2;P2;SDS_P1;SDS_P2;PMS_P1;PMS_P2;Temp;Humidity;BMP_temperature;BMP_pressure;BME280_temperature;BME280_humidity;BME280_pressure;Samples;Min_cycle;Max_cycle;Signal;HPM_P1;HPM_P2
2021/03/30 00:00:25;;;;;;;14.77;6.75;;;231.30;1843.20;;;;;;5052985;28;20375;-69
2021/03/30 00:02:52;;;;;;;11.10;6.57;;;231.30;1894.40;;;;;;5030879;28;20045;-81
2021/03/30 00:05:18;;;;;;;12.82;6.32;;;231.20;1894.40;;;;;;5051464;28;20053;-78
2021/03/30 00:07:44;;;;;;;19.38;9.45;;;231.20;1920.00;;;;;;5052512;28;20028;-70
2021/03/30 00:10:13;;;;;;;17.15;8.90;;;231.20;1868.80;;;;;;5049300;28;20021;-84
2021/03/30 00:12:39;;;;;;;16.10;6.82;;;231.20;1868.80;;;;;;5044448;28;20117;-72
2021/03/30 00:15:08;;;;;;;13.55;6.93;;;231.20;1868.80;;;;;;5045950;28;20017;-81
2021/03/30 00:17:34;;;;;;;12.38;6.47;;;231.20;1868.80;;;;;;5043274;28;20407;-72
2021/03/30 00:20:00;;;;;;;12.25;4.93;;;231.20;1868.80;;;;;;5041940;28;20075;-76
2021/03/30 00:22:26;;;;;;;9.77;5.10;;;231.20;1894.40;;;;;;5051794;28;20025;-78
2021/03/30 00:24:52;;;;;;;11.52;4.60;;;231.10;1894.40;;;;;;5034304;28;20433;-82
2021/03/30 00:27:17;;;;;;;9.02;4.55;;;231.10;1920.00;;;;;;5051362;28;20096;-83
2021/03/30 00:29:43;;;;;;;12.73;4.50;;;231.10;1920.00;;;;;;5051483;28;20393;-83
2021/03/30 00:32:15;;;;;;;10.00;4.70;;;231.10;1971.20;;;;;;5051873;28;20040;-72
2021/03/30 00:34:41;;;;;;;9.70;4.43;;;231.10;1894.40;;;;;;5050931;28;20037;-72
2021/03/30 00:37:07;;;;;;;11.65;4.35;;;231.10;1894.40;;;;;;5051755;28;20055;-75
2021/03/30 00:39:33;;;;;;;10.20;4.80;;;231.10;1920.00;;;;;;5066329;28;20025;-85
2021/03/30 00:41:59;;;;;;;8.93;4.15;;;231.10;1920.00;;;;;;5051869;28;20055;-82
2021/03/30 00:44:25;;;;;;;10.65;4.72;;;231.10;1920.00;;;;;;5051447;28;20070;-84
2021/03/30 00:46:52;;;;;;;8.75;4.47;;;231.10;1920.00;;;;;;5052336;28;20037;-77
2021/03/30 00:49:21;;;;;;;10.48;4.72;;;231.10;1920.00;;;;;;5032992;28;20033;-76
2021/03/30 00:51:48;;;;;;;7.25;4.85;;;231.10;1894.40;;;;;;5046987;28;20112;-70
2021/03/30 00:54:15;;;;;;;10.10;4.70;;;231.10;1920.00;;;;;;5050004;28;20029;-85
2021/03/30 00:56:44;;;;;;;9.20;4.25;;;231.10;1920.00;;;;;;5051635;28;20032;-78
2021/03/30 00:59:12;;;;;;;8.88;4.25;;;231.20;1920.00;;;;;;5049296;28;20355;-72
2021/03/30 01:01:38;;;;;;;8.68;4.88;;;231.10;1945.60;;;;;;5051366;28;20021;-68
2021/03/30 01:04:04;;;;;;;9.48;4.25;;;231.10;1945.60;;;;;;5048310;28;20179;-79
2021/03/30 01:06:30;;;;;;;7.32;4.22;;;231.00;1920.00;;;;;;5049144;28;20061;-70
2021/03/30 01:09:18;;;;;;;8.23;4.60;;;231.00;1920.00;;;;;;5050235;28;20033;-78
2021/03/30 01:12:08;;;;;;;9.68;4.28;;;231.00;1920.00;;;;;;5051314;28;20128;-71
2021/03/30 01:14:49;;;;;;;10.50;4.32;;;231.10;1945.60;;;;;;5051099;28;20101;-70
2021/03/30 01:17:43;;;;;;;8.07;4.32;;;231.10;1920.00;;;;;;5044621;28;20049;-75
2021/03/30 01:20:40;;;;;;;8.38;3.92;;;231.10;1920.00;;;;;;5031430;28;20450;-67
2021/03/30 01:23:33;;;;;;;8.60;4.55;;;231.00;1920.00;;;;;;5045978;28;20025;-85
2021/03/30 01:26:12;;;;;;;9.53;4.53;;;231.00;1920.00;;;;;;5045187;28;20025;-76
2021/03/30 01:29:11;;;;;;;9.32;4.57;;;231.00;1920.00;;;;;;5037326;28;20018;-69
2021/03/30 01:31:49;;;;;;;9.38;4.50;;;231.00;1920.00;;;;;;5017093;28;20068;-69
2021/03/30 01:34:19;;;;;;;11.73;4.82;;;231.00;1920.00;;;;;;5055636;28;20033;-84
2021/03/30 01:36:45;;;;;;;9.13;4.40;;;230.90;1920.00;;;;;;5054508;28;20029;-74
2021/03/30 01:39:14;;;;;;;9.80;4.20;;;230.90;1894.40;;;;;;5041606;28;20017;-68
2021/03/30 01:41:44;;;;;;;12.20;4.50;;;230.90;1945.60;;;;;;5048162;28;20537;-79
2021/03/30 01:44:14;;;;;;;8.27;4.38;;;231.00;1920.00;;;;;;5054652;28;20352;-73
2021/03/30 01:46:41;;;;;;;9.73;4.20;;;231.10;1920.00;;;;;;5054908;28;20025;-69
2021/03/30 01:49:08;;;;;;;11.35;4.68;;;231.10;1920.00;;;;;;5054448;28;20112;-74
2021/03/30 01:51:34;;;;;;;10.20;4.65;;;231.20;1920.00;;;;;;5054539;28;20090;-71
2021/03/30 01:54:00;;;;;;;11.77;4.50;;;231.20;1894.40;;;;;;5054648;28;20108;-85
2021/03/30 01:56:29;;;;;;;11.30;4.80;;;231.20;1894.40;;;;;;5055317;28;20028;-75
2021/03/30 01:58:58;;;;;;;11.38;5.18;;;231.30;1894.40;;;;;;5052809;28;20067;-70
2021/03/30 02:01:24;;;;;;;11.82;5.03;;;231.30;1894.40;;;;;;5047038;28;20099;-75
2021/03/30 02:03:50;;;;;;;13.10;4.65;;;231.30;1868.80;;;;;;5054651;28;20437;-76
2021/03/30 02:06:16;;;;;;;11.57;4.55;;;256.00;1894.40;;;;;;5035902;28;20033;-75
2021/03/30 02:08:43;;;;;;;9.32;4.30;;;256.10;1868.80;;;;;;5054578;28;20075;-70
2021/03/30 02:11:09;;;;;;;8.90;4.45;;;256.10;1868.80;;;;;;5054169;28;20021;-81
2021/03/30 02:16:13;;;;;;;7.45;4.35;;;256.20;1868.80;;;;;;5053999;28;20482;-76
2021/03/30 02:18:51;;;;;;;12.80;4.65;;;256.20;1868.80;;;;;;5053812;28;20497;-71
2021/03/30 02:21:24;;;;;;;9.45;4.80;;;256.20;1894.40;;;;;;5051852;28;20374;-81
2021/03/30 02:23:51;;;;;;;11.90;4.70;;;256.20;1868.80;;;;;;5040678;28;20124;-78
2021/03/30 02:26:17;;;;;;;8.15;4.60;;;256.10;1868.80;;;;;;5054393;28;20401;-70
2021/03/30 02:28:47;;;;;;;11.05;4.45;;;256.20;1843.20;;;;;;5035582;28;20398;-83
2021/03/30 02:31:16;;;;;;;8.35;4.40;;;256.20;1868.80;;;;;;5043109;28;20060;-83
2021/03/30 02:33:46;;;;;;;9.48;4.47;;;256.20;1868.80;;;;;;5051691;28;20029;-70
2021/03/30 02:36:13;;;;;;;8.88;4.30;;;256.20;1868.80;;;;;;5053500;28;20075;-85
2021/03/30 02:38:38;;;;;;;11.77;4.70;;;256.30;1868.80;;;;;;5036555;28;20063;-71
2021/03/30 02:41:05;;;;;;;7.88;4.40;;;256.20;1843.20;;;;;;5052158;28;20052;-73
2021/03/30 02:43:33;;;;;;;9.73;4.63;;;256.20;1920.00;;;;;;5053544;28;20540;-81
2021/03/30 02:46:02;;;;;;;8.23;4.50;;;256.10;1920.00;;;;;;5052097;28;20017;-70
2021/03/30 02:48:29;;;;;;;7.32;3.95;;;256.10;1920.00;;;;;;5054307;28;20060;-86
2021/03/30 02:50:55;;;;;;;9.00;4.10;;;256.10;1945.60;;;;;;5053528;28;20066;-85
2021/03/30 02:53:21;;;;;;;10.43;4.57;;;256.10;1894.40;;;;;;5054378;28;20044;-82
2021/03/30 02:55:48;;;;;;;9.57;4.32;;;256.10;1894.40;;;;;;5053660;28;20021;-71
2021/03/30 02:58:14;;;;;;;8.48;4.15;;;256.10;1894.40;;;;;;5052907;28;20486;-80
2021/03/30 03:00:41;;;;;;;8.27;3.88;;;256.10;1894.40;;;;;;5042097;28;20069;-68
2021/03/30 03:03:11;;;;;;;8.13;4.22;;;256.10;1868.80;;;;;;5046163;28;20498;-69
2021/03/30 03:05:38;;;;;;;7.88;4.40;;;256.20;1868.80;;;;;;5057297;28;20450;-71
2021/03/30 03:08:08;;;;;;;10.60;4.47;;;256.20;1894.40;;;;;;5052891;28;20035;-81
2021/03/30 03:10:35;;;;;;;9.90;4.10;;;256.20;1894.40;;;;;;5047072;28;20025;-84
2021/03/30 03:13:01;;;;;;;11.68;4.50;;;256.30;1894.40;;;;;;5068847;28;20063;-81
2021/03/30 03:15:29;;;;;;;7.80;4.13;;;256.30;1894.40;;;;;;5059419;28;20025;-84
2021/03/30 03:17:57;;;;;;;8.70;4.28;;;256.20;1894.40;;;;;;5062764;28;20025;-85
2021/03/30 03:20:24;;;;;;;9.95;4.18;;;256.30;1894.40;;;;;;5056924;28;20017;-83
2021/03/30 03:22:51;;;;;;;10.38;4.35;;;256.30;1894.40;;;;;;5063850;28;20478;-69
2021/03/30 03:25:17;;;;;;;7.35;4.10;;;256.30;1920.00;;;;;;5060827;28;20028;-75
2021/03/30 03:27:43;;;;;;;7.20;3.92;;;256.30;1920.00;;;;;;5058602;28;20037;-70
2021/03/30 03:30:11;;;;;;;10.85;4.45;;;256.20;1894.40;;;;;;5053883;28;20112;-84
2021/03/30 03:32:37;;;;;;;10.38;4.55;;;256.30;1894.40;;;;;;5065067;28;20056;-74
2021/03/30 03:35:03;;;;;;;8.32;4.45;;;256.30;1894.40;;;;;;5067838;28;20475;-70
2021/03/30 03:37:30;;;;;;;10.48;4.15;;;256.40;1868.80;;;;;;5062676;28;20397;-79
2021/03/30 03:39:57;;;;;;;9.18;4.82;;;256.40;1894.40;;;;;;5043222;28;20498;-73
2021/03/30 03:42:22;;;;;;;9.63;4.53;;;256.50;1894.40;;;;;;5056339;28;20036;-82
2021/03/30 03:44:48;;;;;;;9.55;4.72;;;256.50;1868.80;;;;;;5054905;28;20024;-76
2021/03/30 03:47:14;;;;;;;7.18;4.63;;;256.50;1920.00;;;;;;5066397;28;20025;-83
2021/03/30 03:49:40;;;;;;;9.43;4.65;;;256.50;1920.00;;;;;;5052159;28;20078;-74
2021/03/30 03:52:12;;;;;;;6.95;4.32;;;256.50;1894.40;;;;;;5041396;28;20497;-83
2021/03/30 03:54:40;;;;;;;10.68;4.60;;;256.60;1894.40;;;;;;5034926;28;20053;-71
2021/03/30 03:57:13;;;;;;;14.70;6.72;;;256.60;1894.40;;;;;;5052462;28;20028;-82
2021/03/30 03:59:43;;;;;;;16.55;8.30;;;256.60;1894.40;;;;;;5045113;28;20082;-82
2021/03/30 04:02:12;;;;;;;10.63;5.50;;;256.70;1868.80;;;;;;5048441;28;20025;-70
2021/03/30 04:05:13;;;;;;;13.48;5.57;;;256.70;1868.80;;;;;;5041692;28;20040;-82
2021/03/30 04:08:05;;;;;;;9.52;4.68;;;256.70;1894.40;;;;;;5010200;28;20117;-70
2021/03/30 04:10:34;;;;;;;8.60;4.47;;;256.70;1894.40;;;;;;5009892;28;20025;-85
2021/03/30 04:13:00;;;;;;;12.00;4.70;;;256.70;1894.40;;;;;;5009987;28;20108;-72
2021/03/30 04:15:27;;;;;;;10.68;4.68;;;256.60;1920.00;;;;;;5010016;28;20049;-71
2021/03/30 04:17:53;;;;;;;13.77;4.93;;;256.60;1920.00;;;;;;5010408;28;20081;-83
2021/03/30 04:20:20;;;;;;;12.25;5.55;;;256.60;1945.60;;;;;;5010234;28;20058;-71
2021/03/30 04:22:52;;;;;;;10.65;5.15;;;256.60;1920.00;;;;;;5010012;28;20037;-86
2021/03/30 04:25:18;;;;;;;12.45;5.88;;;256.60;1945.60;;;;;;5008555;28;20029;-81
2021/03/30 04:27:44;;;;;;;17.77;8.48;;;256.60;1920.00;;;;;;5008212;28;20085;-70
2021/03/30 04:30:10;;;;;;;12.93;6.35;;;256.60;1920.00;;;;;;5010008;28;20025;-85
2021/03/30 04:32:36;;;;;;;15.63;7.15;;;256.70;1920.00;;;;;;5006564;28;20049;-72
2021/03/30 04:35:03;;;;;;;22.73;6.68;;;256.70;1920.00;;;;;;5010119;28;20133;-83
2021/03/30 04:37:28;;;;;;;14.00;6.03;;;256.70;1920.00;;;;;;5008249;28;20376;-83
2021/03/30 04:39:54;;;;;;;11.70;5.82;;;256.70;1920.00;;;;;;5009380;28;20028;-83
2021/03/30 04:42:20;;;;;;;11.07;5.60;;;256.70;1920.00;;;;;;5010279;28;20045;-77
2021/03/30 04:44:45;;;;;;;10.95;5.70;;;256.70;1894.40;;;;;;5030498;28;20162;-71
2021/03/30 04:47:11;;;;;;;15.75;5.93;;;256.80;1894.40;;;;;;5053023;28;20580;-71
2021/03/30 04:49:37;;;;;;;12.30;5.65;;;256.80;1894.40;;;;;;5049866;28;20044;-73
2021/03/30 04:52:04;;;;;;;13.68;5.80;;;256.90;1920.00;;;;;;5059957;28;20781;-70
2021/03/30 04:54:29;;;;;;;16.00;5.63;;;256.90;1945.60;;;;;;5052468;28;20040;-77
2021/03/30 04:56:55;;;;;;;20.88;5.95;;;281.60;1945.60;;;;;;5064889;28;20025;-72
2021/03/30 04:59:22;;;;;;;27.33;6.90;;;281.70;1945.60;;;;;;5055541;28;20037;-87
2021/03/30 05:01:48;;;;;;;12.75;4.90;;;281.80;1945.60;;;;;;5052225;28;20021;-78
2021/03/30 05:04:13;;;;;;;16.60;5.22;;;281.90;1920.00;;;;;;5054592;28;20056;-85
2021/03/30 05:06:39;;;;;;;19.88;5.57;;;281.90;1945.60;;;;;;5060673;28;20025;-76
2021/03/30 05:09:05;;;;;;;30.95;5.72;;;282.00;1920.00;;;;;;5056487;28;20029;-69
2021/03/30 05:11:31;;;;;;;16.30;5.53;;;282.10;1920.00;;;;;;5060501;28;20036;-74
2021/03/30 05:13:57;;;;;;;13.52;5.30;;;282.10;1894.40;;;;;;5055888;28;20494;-76
2021/03/30 05:16:22;;;;;;;18.73;5.85;;;282.10;1945.60;;;;;;5076118;28;20020;-72
2021/03/30 05:18:48;;;;;;;20.23;6.95;;;282.20;1945.60;;;;;;5073863;28;20054;-70
2021/03/30 05:21:14;;;;;;;17.33;8.77;;;282.30;1894.40;;;;;;5070319;28;20459;-67
2021/03/30 05:23:40;;;;;;;20.52;8.80;;;282.30;1894.40;;;;;;5068409;28;20029;-68
2021/03/30 05:26:05;;;;;;;22.88;9.18;;;282.30;1920.00;;;;;;5068805;28;20029;-73
2021/03/30 05:28:32;;;;;;;23.65;10.77;;;282.40;1868.80;;;;;;5055025;28;20028;-73
2021/03/30 05:30:58;;;;;;;27.92;14.20;;;282.50;1868.80;;;;;;5053813;28;20028;-67
2021/03/30 05:33:23;;;;;;;40.17;16.33;;;282.50;1843.20;;;;;;5044480;28;20033;-70
2021/03/30 05:35:49;;;;;;;25.98;12.88;;;307.20;1868.80;;;;;;5052300;28;20488;-67
2021/03/30 05:38:15;;;;;;;37.35;14.57;;;307.30;1843.20;;;;;;5055171;28;20104;-66
2021/03/30 05:40:42;;;;;;;33.47;16.02;;;307.40;1868.80;;;;;;5055254;28;20065;-74
2021/03/30 05:43:12;;;;;;;24.77;11.02;;;307.50;1894.40;;;;;;5065385;28;20025;-71
2021/03/30 05:45:39;;;;;;;23.45;11.30;;;307.70;1868.80;;;;;;5052432;28;20032;-80
2021/03/30 05:48:11;;;;;;;20.52;11.45;;;307.90;1920.00;;;;;;5054028;28;20027;-75
2021/03/30 05:50:37;;;;;;;36.53;12.93;;;308.10;1894.40;;;;;;5051160;28;20482;-68
2021/03/30 05:53:10;;;;;;;32.13;10.63;;;;;;;;;;5055678;28;20040;-66
2021/03/30 05:55:39;;;;;;;31.65;10.65;;;333.00;1868.80;;;;;;5055255;28;20052;-74
2021/03/30 05:58:06;;;;;;;32.92;10.05;;;333.00;1766.40;;;;;;5055053;28;20126;-85
2021/03/30 06:00:37;;;;;;;35.15;10.50;;;333.10;1792.00;;;;;;5035585;28;20025;-81
2021/03/30 06:03:09;;;;;;;37.15;10.20;;;333.30;1817.60;;;;;;5054254;28;20033;-67
2021/03/30 06:05:36;;;;;;;26.15;9.93;;;333.30;1817.60;;;;;;5039561;28;20052;-72
2021/03/30 06:08:04;;;;;;;26.33;9.13;;;333.40;1792.00;;;;;;5042062;28;20033;-80
2021/03/30 06:10:31;;;;;;;31.48;8.73;;;333.40;1792.00;;;;;;5034937;28;20467;-85
2021/03/30 06:12:59;;;;;;;20.33;9.35;;;332.90;1792.00;;;;;;5038049;28;20028;-70
2021/03/30 06:15:34;;;;;;;22.60;10.07;;;333.50;1792.00;;;;;;5034785;28;20029;-74
2021/03/30 06:18:01;;;;;;;33.72;18.65;;;333.70;1792.00;;;;;;5035914;28;20029;-68
2021/03/30 06:20:36;;;;;;;30.67;19.20;;;358.40;1792.00;;;;;;5040307;28;20028;-71
2021/03/30 06:23:06;;;;;;;22.10;11.65;;;358.50;1792.00;;;;;;5021194;28;20087;-66
2021/03/30 06:25:50;;;;;;;21.42;11.10;;;358.70;1766.40;;;;;;5042090;28;20039;-69
2021/03/30 06:28:40;;;;;;;23.10;8.77;;;359.00;1792.00;;;;;;5035620;28;20052;-70
2021/03/30 06:31:10;;;;;;;35.33;9.27;;;359.10;1766.40;;;;;;5034989;28;20075;-73
2021/03/30 06:33:58;;;;;;;32.05;9.55;;;359.30;1740.80;;;;;;5023446;28;20061;-71
2021/03/30 06:36:32;;;;;;;27.15;8.60;;;359.30;1740.80;;;;;;5033114;28;20155;-74
2021/03/30 06:39:03;;;;;;;;;;;384.30;1638.40;;;;;;5026254;28;20045;-71
2021/03/30 06:41:48;;;;;;;22.77;7.90;;;384.60;1715.20;;;;;;5039000;28;20367;-68
2021/03/30 06:44:28;;;;;;;24.08;8.55;;;384.60;1766.40;;;;;;5034956;28;20040;-68
2021/03/30 06:47:11;;;;;;;25.65;9.13;;;384.90;1715.20;;;;;;5015777;28;20392;-67
2021/03/30 06:49:37;;;;;;;;;;;;;;;;;;5034422;28;20129;-72
2021/03/30 06:52:20;;;;;;;25.98;14.23;;;;;;;;;;5034866;28;20019;-71
2021/03/30 06:57:57;;;;;;;43.45;22.63;;;410.40;1843.20;;;;;;5266515;23;20058;-72
2021/03/30 07:00:31;;;;;;;35.72;16.90;;;;;;;;;;4996581;28;20034;-72
2021/03/30 07:02:59;;;;;;;34.03;16.90;;;;;;;;;;4996754;28;20034;-66
2021/03/30 07:05:28;;;;;;;28.48;15.38;;;436.00;1408.00;;;;;;5007959;28;20022;-69
2021/03/30 07:07:57;;;;;;;22.90;12.40;;;435.90;1356.80;;;;;;4990271;28;20049;-67
2021/03/30 07:10:24;;;;;;;30.08;13.35;;;435.70;1356.80;;;;;;4983842;28;20022;-68
2021/03/30 07:12:51;;;;;;;27.88;12.55;;;435.40;1382.40;;;;;;4995830;28;20034;-75
2021/03/30 07:15:19;;;;;;;23.48;12.55;;;435.40;1356.80;;;;;;5000857;28;20085;-75
2021/03/30 07:18:10;;;;;;;33.75;13.27;;;435.60;1382.40;;;;;;5002247;28;20040;-67
2021/03/30 07:20:58;;;;;;;28.05;13.52;;;435.50;1356.80;;;;;;4921908;29;20080;-73
2021/03/30 07:23:28;;;;;;;30.65;13.60;;;435.60;1356.80;;;;;;4911644;29;20029;-70
2021/03/30 07:26:08;;;;;;;27.20;14.60;;;435.60;1356.80;;;;;;4916705;29;20064;-83
2021/03/30 07:28:57;;;;;;;28.88;14.13;;;435.70;1356.80;;;;;;4919367;29;20534;-80
2021/03/30 07:31:28;;;;;;;25.73;13.75;;;;;;;;;;4879589;29;20408;-69
2021/03/30 07:34:02;;;;;;;25.30;13.60;;;461.10;1305.60;;;;;;4892654;29;20521;-76
2021/03/30 07:36:34;;;;;;;23.33;13.43;;;460.90;1305.60;;;;;;4881164;29;20076;-83
2021/03/30 07:39:02;;;;;;;29.60;14.32;;;461.00;1305.60;;;;;;4872819;29;20040;-75
2021/03/30 07:41:28;;;;;;;26.48;14.43;;;;;;;;;;4883579;29;20044;-73
2021/03/30 07:43:59;;;;;;;25.38;14.80;;;;;;;;;;4884807;29;20048;-71
2021/03/30 07:46:25;;;;;;;36.10;14.75;;;;;;;;;;4879673;29;20033;-81
2021/03/30 07:48:51;;;;;;;21.88;13.30;;;461.20;1305.60;;;;;;4889361;29;20529;-76
2021/03/30 07:51:24;;;;;;;27.38;12.98;;;461.10;1331.20;;;;;;4885955;29;20040;-75
2021/03/30 07:54:05;;;;;;;22.42;12.10;;;461.70;1280.00;;;;;;4887143;29;20044;-71
2021/03/30 07:56:47;;;;;;;21.00;11.70;;;486.50;1305.60;;;;;;4882601;29;20112;-69
2021/03/30 07:59:46;;;;;;;24.50;13.20;;;461.70;1254.40;;;;;;4929348;29;20077;-77
2021/03/30 08:02:24;;;;;;;29.88;12.23;;;461.70;1280.00;;;;;;4931072;29;20036;-75
2021/03/30 08:05:08;;;;;;;23.73;12.57;;;461.70;1254.40;;;;;;4936483;29;20054;-87
2021/03/30 08:07:54;;;;;;;24.17;12.35;;;461.60;1254.40;;;;;;4941447;28;20499;-69
2021/03/30 08:10:24;;;;;;;25.55;11.90;;;461.60;1280.00;;;;;;4990840;28;20068;-77
2021/03/30 08:13:10;;;;;;;24.08;11.35;;;486.70;1280.00;;;;;;5022273;28;20100;-76
2021/03/30 08:15:45;;;;;;;20.30;11.70;;;461.70;1254.40;;;;;;5012276;28;20033;-67
2021/03/30 08:18:12;;;;;;;19.38;10.98;;;486.40;1254.40;;;;;;4997906;28;20037;-69
2021/03/30 08:20:57;;;;;;;18.77;11.20;;;461.70;1254.40;;;;;;5012083;28;20030;-76
2021/03/30 08:23:24;;;;;;;22.70;11.02;;;461.40;1254.40;;;;;;5011609;28;20025;-70
2021/03/30 08:25:52;;;;;;;27.30;10.25;;;461.30;1254.40;;;;;;5017745;28;20040;-71
2021/03/30 08:28:48;;;;;;;19.33;10.32;;;461.30;1254.40;;;;;;5011530;28;20499;-68
2021/03/30 08:31:16;;;;;;;19.90;9.88;;;461.30;1254.40;;;;;;5012148;28;20029;-76
2021/03/30 08:33:42;;;;;;;17.50;10.48;;;461.40;1254.40;;;;;;5021000;28;20387;-71
2021/03/30 08:36:22;;;;;;;18.42;10.20;;;461.30;1254.40;;;;;;5011950;28;20093;-67
2021/03/30 08:38:50;;;;;;;19.17;9.70;;;460.90;1254.40;;;;;;5009431;28;20049;-72
2021/03/30 08:41:45;;;;;;;20.65;11.48;;;460.80;1280.00;;;;;;5010685;28;20116;-68
2021/03/30 08:44:22;;;;;;;24.20;9.90;;;460.80;1280.00;;;;;;4993260;28;20029;-75
2021/03/30 08:46:54;;;;;;;16.50;10.05;;;435.90;1305.60;;;;;;5013145;28;20510;-74
2021/03/30 08:49:43;;;;;;;21.33;10.25;;;435.80;1305.60;;;;;;5011533;28;20022;-78
2021/03/30 08:52:11;;;;;;;30.20;19.00;;;435.90;1280.00;;;;;;4999044;28;20417;-75
2021/03/30 08:54:59;;;;;;;19.15;10.82;;;435.90;1331.20;;;;;;4995564;28;20097;-78
2021/03/30 08:57:31;;;;;;;27.92;10.88;;;435.50;1280.00;;;;;;5009725;28;20546;-73
2021/03/30 08:59:59;;;;;;;18.73;10.73;;;435.70;1305.60;;;;;;5008965;28;20121;-86
2021/03/30 09:02:27;;;;;;;19.73;11.65;;;435.50;1331.20;;;;;;5010970;28;20215;-70
2021/03/30 09:04:54;;;;;;;21.58;12.65;;;435.40;1331.20;;;;;;4997779;28;20121;-81
2021/03/30 09:07:20;;;;;;;25.90;14.13;;;435.50;1331.20;;;;;;5011301;28;20030;-75
2021/03/30 09:09:47;;;;;;;21.70;12.63;;;435.50;1331.20;;;;;;5009864;28;20208;-69
2021/03/30 09:12:21;;;;;;;18.60;10.90;;;435.50;1356.80;;;;;;5010582;28;20062;-80
2021/03/30 09:14:58;;;;;;;18.15;10.77;;;435.40;1331.20;;;;;;4991096;28;20042;-76
2021/03/30 09:17:24;;;;;;;21.23;11.23;;;435.40;1356.80;;;;;;5010187;28;20046;-75
2021/03/30 09:19:51;;;;;;;21.02;10.93;;;435.50;1331.20;;;;;;5010662;28;20153;-70
2021/03/30 09:27:31;;;;;;;26.35;11.60;;;435.90;1305.60;;;;;;5007866;28;20033;-77
2021/03/30 09:29:59;;;;;;;22.02;9.88;;;436.10;1280.00;;;;;;5009958;28;20020;-79
2021/03/30 09:32:27;;;;;;;18.88;9.82;;;460.80;1305.60;;;;;;5010700;28;20077;-69
2021/03/30 09:35:00;;;;;;;26.25;9.80;;;460.90;1305.60;;;;;;5010389;28;20542;-76
2021/03/30 09:37:33;;;;;;;16.38;8.88;;;461.00;1305.60;;;;;;5007886;28;20037;-73
2021/03/30 09:40:05;;;;;;;20.13;9.32;;;461.20;1280.00;;;;;;5009245;28;20046;-77
2021/03/30 09:42:31;;;;;;;16.50;10.00;;;461.10;1280.00;;;;;;5002844;28;20030;-73
2021/03/30 09:44:57;;;;;;;17.17;10.32;;;461.00;1254.40;;;;;;5004904;28;20029;-74
2021/03/30 09:47:23;;;;;;;22.13;11.63;;;460.90;1280.00;;;;;;5006175;28;20084;-70
2021/03/30 09:49:49;;;;;;;26.08;11.48;;;460.80;1305.60;;;;;;5003157;28;20041;-83
2021/03/30 09:52:15;;;;;;;25.55;11.55;;;436.10;1305.60;;;;;;5006749;28;20034;-83
2021/03/30 09:54:43;;;;;;;20.02;12.13;;;436.00;1305.60;;;;;;5014549;28;20083;-69
2021/03/30 09:57:21;;;;;;;28.20;13.20;;;435.90;1331.20;;;;;;4996970;28;20482;-68
2021/03/30 09:59:50;;;;;;;26.25;13.15;;;436.00;1305.60;;;;;;4995158;28;20088;-80
2021/03/30 10:02:34;;;;;;;24.85;13.25;;;436.10;1305.60;;;;;;4998904;28;20199;-77
2021/03/30 10:05:05;;;;;;;26.50;13.23;;;435.90;1331.20;;;;;;4993627;28;20022;-72
2021/03/30 10:07:38;;;;;;;25.67;12.70;;;435.50;1356.80;;;;;;5002228;28;20391;-72
2021/03/30 10:10:11;;;;;;;21.05;13.02;;;435.60;1356.80;;;;;;4994971;28;20099;-71
2021/03/30 10:12:55;;;;;;;21.85;12.48;;;435.70;1356.80;;;;;;4994179;28;20113;-70
2021/03/30 10:15:39;;;;;;;24.70;12.60;;;435.80;1331.20;;;;;;4995002;28;20117;-80
2021/03/30 10:18:06;;;;;;;21.55;12.90;;;436.00;1331.20;;;;;;5002230;28;20064;-74
2021/03/30 10:20:36;;;;;;;30.17;13.82;;;460.80;1356.80;;;;;;4991957;28;20045;-75
2021/03/30 10:23:12;;;;;;;25.55;12.13;;;461.10;1331.20;;;;;;4995392;28;20109;-73
2021/03/30 10:25:43;;;;;;;20.50;11.90;;;461.50;1331.20;;;;;;4993676;28;20042;-75
2021/03/30 10:28:09;;;;;;;25.20;13.88;;;461.50;1280.00;;;;;;4997381;28;20052;-77
2021/03/30 10:30:45;;;;;;;21.27;12.15;;;461.70;1280.00;;;;;;4995269;28;20053;-77
2021/03/30 10:33:17;;;;;;;18.75;11.43;;;461.60;1254.40;;;;;;4996738;28;20483;-74
2021/03/30 10:35:44;;;;;;;25.83;12.73;;;461.70;1280.00;;;;;;4994718;28;20029;-76
2021/03/30 10:38:10;;;;;;;19.65;12.93;;;486.60;1228.80;;;;;;4990417;28;20479;-78
2021/03/30 10:40:39;;;;;;;22.20;11.85;;;486.50;1228.80;;;;;;4990705;28;20034;-76
2021/03/30 10:43:22;;;;;;;22.65;12.00;;;486.50;1228.80;;;;;;4991662;28;20041;-83
2021/03/30 10:45:50;;;;;;;21.50;12.65;;;486.50;1254.40;;;;;;4995481;28;20034;-70
2021/03/30 10:48:16;;;;;;;24.05;11.82;;;486.40;1254.40;;;;;;4993159;28;20040;-73
2021/03/30 10:50:42;;;;;;;21.83;11.93;;;461.70;1254.40;;;;;;4996688;28;20030;-79
2021/03/30 10:53:09;;;;;;;24.42;13.18;;;461.50;1280.00;;;;;;4994439;28;20392;-71
2021/03/30 10:55:35;;;;;;;23.63;11.70;;;461.30;1280.00;;;;;;4998909;28;20436;-74
2021/03/30 10:58:06;;;;;;;19.50;12.02;;;461.40;1280.00;;;;;;4998595;28;20053;-78
2021/03/30 11:00:32;;;;;;;20.40;11.32;;;461.50;1280.00;;;;;;5009523;28;20030;-77
2021/03/30 11:02:58;;;;;;;23.55;13.18;;;461.40;1280.00;;;;;;5018587;28;20438;-77
2021/03/30 11:05:25;;;;;;;18.75;12.50;;;461.50;1280.00;;;;;;5007456;28;20033;-78
2021/03/30 11:07:51;;;;;;;21.80;12.70;;;461.40;1305.60;;;;;;5010146;28;20076;-76
2021/03/30 11:10:17;;;;;;;25.63;13.15;;;461.50;1305.60;;;;;;5013040;28;20026;-80
2021/03/30 11:12:43;;;;;;;22.55;14.68;;;461.70;1280.00;;;;;;5015579;28;20045;-81
2021/03/30 11:15:11;;;;;;;20.35;11.88;;;461.70;1280.00;;;;;;5014748;28;20383;-71
2021/03/30 11:17:37;;;;;;;19.50;11.50;;;486.40;1280.00;;;;;;5012991;28;20037;-69
2021/03/30 11:20:05;;;;;;;20.02;11.43;;;486.40;1254.40;;;;;;5014422;28;20022;-73
2021/03/30 11:22:31;;;;;;;27.63;11.48;;;486.80;1228.80;;;;;;5011787;28;20038;-75
2021/03/30 11:25:01;;;;;;;18.92;11.07;;;486.70;1228.80;;;;;;5001641;28;20031;-72
2021/03/30 11:27:29;;;;;;;26.83;12.07;;;486.90;1228.80;;;;;;5013448;28;20053;-74
2021/03/30 11:35:21;;;;;;;28.73;13.57;;;486.90;1228.80;;;;;;4950202;28;20182;-79
2021/03/30 11:37:53;;;;;;;39.63;21.75;;;487.10;1228.80;;;;;;4950759;28;20098;-69
2021/03/30 11:40:20;;;;;;;30.73;16.33;;;487.00;1228.80;;;;;;4952924;28;20047;-74
2021/03/30 11:42:46;;;;;;;35.58;16.65;;;487.20;1203.20;;;;;;4952110;28;20059;-67
2021/03/30 11:45:13;;;;;;;31.45;17.83;;;512.10;1203.20;;;;;;4952506;28;20149;-68
2021/03/30 11:47:39;;;;;;;25.38;14.43;;;;;;;;;;4952538;28;20061;-68
2021/03/30 11:50:06;;;;;;;23.10;12.38;;;512.30;1177.60;;;;;;4949777;28;20034;-71
2021/03/30 11:52:33;;;;;;;30.00;15.85;;;512.30;1331.20;;;;;;4936378;28;20070;-69
2021/03/30 11:55:00;;;;;;;17.95;11.25;;;512.20;1177.60;;;;;;4947576;28;20038;-69
2021/03/30 11:57:26;;;;;;;19.90;9.15;;;512.20;1203.20;;;;;;4951636;28;20051;-72
2021/03/30 11:59:52;;;;;;;27.83;15.35;;;512.30;1203.20;;;;;;4951035;28;20118;-70
2021/03/30 12:02:18;;;;;;;28.08;14.93;;;512.30;1254.40;;;;;;4952461;28;20027;-69
2021/03/30 12:04:44;;;;;;;32.97;16.48;;;512.20;1177.60;;;;;;4946631;28;20063;-69
2021/03/30 12:07:10;;;;;;;26.20;11.63;;;512.10;1177.60;;;;;;4945727;28;20031;-77
2021/03/30 12:09:35;;;;;;;21.13;10.23;;;512.30;1177.60;;;;;;4950282;28;20066;-76
2021/03/30 12:12:01;;;;;;;16.83;7.57;;;512.10;1177.60;;;;;;4972877;28;20057;-77
2021/03/30 12:14:27;;;;;;;20.08;9.57;;;512.20;1177.60;;;;;;5012209;28;20491;-74
2021/03/30 12:16:53;;;;;;;18.10;8.80;;;512.40;1152.00;;;;;;5012812;28;20041;-79
2021/03/30 12:19:19;;;;;;;17.15;8.98;;;512.40;1152.00;;;;;;5013522;28;20029;-77
2021/03/30 12:21:46;;;;;;;16.92;9.35;;;512.10;1177.60;;;;;;5012216;28;20101;-70
2021/03/30 12:24:12;;;;;;;20.60;10.63;;;512.00;1177.60;;;;;;5012956;28;20064;-78
2021/03/30 12:26:38;;;;;;;21.20;9.23;;;487.20;1177.60;;;;;;5012944;28;20034;-76
2021/03/30 12:29:04;;;;;;;17.20;8.88;;;487.10;1177.60;;;;;;5005434;28;20029;-80
2021/03/30 12:31:31;;;;;;;16.88;8.48;;;487.00;1203.20;;;;;;5011312;28;20035;-71
2021/03/30 12:33:57;;;;;;;18.33;10.07;;;487.00;1203.20;;;;;;5011166;28;20030;-79
2021/03/30 12:36:23;;;;;;;19.10;9.77;;;486.70;1254.40;;;;;;5001883;28;20486;-77
2021/03/30 12:38:49;;;;;;;22.33;9.85;;;486.40;1254.40;;;;;;5006388;28;20113;-78
2021/03/30 12:41:14;;;;;;;18.77;9.50;;;461.70;1254.40;;;;;;5007237;28;20028;-69